Time;durP1;ratioP1;P1;durP2;ratioP2;P2;SDS_P1;SDS_P2;PMS_P1;PMS_P2;Temp;Humidity;BMP_temperature;BMP_pressure;BME280_temperature;BME280_humidity;BME280_pressure;Samples;Min_cycle;Max_cycle;Signal;HPM_P1;HPM_P2
2023/10/27 00:00:54;;;;;;;1.90;1.70;;;;;;;19.46;61.09;96249.56;104128;1277;72541;-40
2023/10/27 00:03:21;;;;;;;1.70;1.60;;;;;;;19.47;60.96;96247.23;103928;1280;61322;-40
2023/10/27 00:05:48;;;;;;;2.00;1.80;;;;;;;19.47;61.04;96245.84;104025;1280;61293;-40
2023/10/27 00:08:15;;;;;;;1.90;1.70;;;;;;;19.46;60.99;96248.79;104051;1277;74687;-40
2023/10/27 00:10:42;;;;;;;3.10;1.90;;;;;;;19.46;60.98;96243.59;104144;1280;65484;-40
2023/10/27 00:13:08;;;;;;;2.00;1.80;;;;;;;19.46;61.00;96245.44;103988;1277;72450;-40
2023/10/27 00:15:35;;;;;;;2.20;1.80;;;;;;;19.46;60.94;96245.29;104001;1280;61402;-40
2023/10/27 00:18:02;;;;;;;2.00;1.70;;;;;;;19.46;60.97;96251.11;103557;1277;61974;-40
2023/10/27 00:20:29;;;;;;;1.70;1.60;;;;;;;19.46;60.89;96253.28;104251;1277;74608;-40
2023/10/27 00:22:55;;;;;;;1.70;1.60;;;;;;;19.45;60.88;96252.36;103936;1277;65853;-40
2023/10/27 00:25:23;;;;;;;2.30;1.90;;;;;;;19.45;60.96;96254.68;104528;1276;73801;-40
2023/10/27 00:27:50;;;;;;;1.90;1.80;;;;;;;19.45;60.93;96248.64;103826;1280;61287;-40
2023/10/27 00:30:17;;;;;;;2.10;1.80;;;;;;;19.45;61.00;96248.48;103952;1277;61336;-40
2023/10/27 00:32:44;;;;;;;1.90;1.80;;;;;;;19.45;60.89;96250.19;104078;1278;74798;-40
2023/10/27 00:35:11;;;;;;;1.90;1.80;;;;;;;19.44;60.95;96249.33;103994;1280;65554;-40
2023/10/27 00:37:37;;;;;;;2.10;1.90;;;;;;;19.44;60.96;96251.04;104005;1277;72652;-40
2023/10/27 00:40:05;;;;;;;2.50;1.90;;;;;;;19.44;60.87;96253.75;103897;1280;61290;-40
2023/10/27 00:42:32;;;;;;;1.60;1.50;;;;;;;19.44;60.94;96250.11;103868;1280;62013;-39
2023/10/27 00:44:58;;;;;;;1.60;1.50;;;;;;;19.44;60.88;96250.42;103786;1280;74523;-39
2023/10/27 00:47:25;;;;;;;1.60;1.50;;;;;;;19.44;60.82;96246.70;104064;1280;65805;-39
2023/10/27 00:49:53;;;;;;;4.20;1.70;;;;;;;19.44;60.85;96241.10;103739;1277;73098;-39
2023/10/27 00:52:20;;;;;;;1.70;1.60;;;;;;;19.44;60.82;96236.69;103559;1283;61349;-39
2023/10/27 00:54:47;;;;;;;1.90;1.70;;;;;;;19.43;60.86;96234.30;103913;1283;62015;-39
2023/10/27 00:57:14;;;;;;;2.30;1.90;;;;;;;19.43;60.88;96230.88;104071;1276;74554;-39
2023/10/27 00:59:42;;;;;;;1.80;1.60;;;;;;;19.43;60.84;96227.86;103959;1280;66219;-39
2023/10/27 01:02:09;;;;;;;1.80;1.70;;;;;;;19.42;60.80;96228.63;104021;1277;72486;-39
2023/10/27 01:04:37;;;;;;;1.90;1.80;;;;;;;19.42;60.79;96230.64;103879;1280;61262;-39
2023/10/27 01:07:04;;;;;;;2.40;1.50;;;;;;;19.42;60.76;96227.07;103493;1276;61438;-39
2023/10/27 01:09:30;;;;;;;2.70;1.60;;;;;;;19.42;60.83;96227.07;103685;1278;74420;-39
2023/10/27 01:11:57;;;;;;;2.80;1.70;;;;;;;19.41;60.88;96223.19;103660;1283;66084;-38
2023/10/27 01:14:24;;;;;;;2.10;1.70;;;;;;;19.41;60.84;96220.54;103549;1277;72541;-39
2023/10/27 01:16:51;;;;;;;1.90;1.60;;;;;;;19.41;60.80;96217.52;103867;1277;61273;-39
2023/10/27 01:19:18;;;;;;;1.70;1.50;;;;;;;19.40;60.76;96216.36;103849;1277;61280;-40
2023/10/27 01:21:45;;;;;;;1.90;1.70;;;;;;;19.40;60.87;96216.06;103973;1278;74433;-39
2023/10/27 01:24:12;;;;;;;1.60;1.50;;;;;;;19.40;60.81;96219.86;103904;1280;66353;-39
2023/10/27 01:26:38;;;;;;;1.60;1.50;;;;;;;19.40;60.72;96221.88;103812;1277;72352;-39
2023/10/27 01:29:05;;;;;;;1.70;1.50;;;;;;;19.40;60.84;96223.04;103988;1280;61326;-39
2023/10/27 01:31:31;;;;;;;1.70;1.40;;;;;;;19.40;60.76;96225.36;103912;1282;61326;-39
2023/10/27 01:39:35;;;;;;;2.80;1.70;;;;;;;19.38;60.81;96219.95;103952;1276;66538;-39
2023/10/27 01:42:02;;;;;;;2.10;1.60;;;;;;;19.38;60.78;96222.11;104016;1277;72352;-39
2023/10/27 01:44:28;;;;;;;2.00;1.70;;;;;;;19.37;60.78;96225.45;104049;1280;61260;-38
2023/10/27 01:46:55;;;;;;;1.60;1.50;;;;;;;19.37;60.78;96230.09;104055;1277;61278;-38
2023/10/27 01:49:23;;;;;;;1.90;1.60;;;;;;;19.38;60.66;96232.20;103979;1277;74469;-38
2023/10/27 01:51:49;;;;;;;1.60;1.50;;;;;;;19.37;60.74;96223.28;104018;1280;66340;-38
2023/10/27 01:54:16;;;;;;;1.80;1.60;;;;;;;19.37;60.69;96209.30;103763;1276;72471;-39
2023/10/27 01:56:42;;;;;;;2.10;1.90;;;;;;;19.37;60.75;96194.03;103821;1280;61307;-41
2023/10/27 01:59:09;;;;;;;1.50;1.30;;;;;;;19.37;60.62;96196.67;103700;1276;61281;-40
2023/10/27 02:01:36;;;;;;;1.70;1.60;;;;;;;19.37;60.74;96204.27;103569;1280;74650;-39
2023/10/27 02:04:03;;;;;;;2.10;1.70;;;;;;;19.37;60.73;96206.20;103549;1280;65760;-39
2023/10/27 02:06:30;;;;;;;1.50;1.40;;;;;;;19.37;60.65;96209.71;103900;1280;72415;-39
2023/10/27 02:08:57;;;;;;;2.10;1.50;;;;;;;19.36;60.66;96204.59;103712;1280;61234;-39
2023/10/27 02:11:23;;;;;;;2.00;1.60;;;;;;;19.36;60.62;96199.54;103607;1277;61358;-39
2023/10/27 02:13:50;;;;;;;1.70;1.40;;;;;;;19.36;60.60;96194.34;103579;1282;74395;-39
2023/10/27 02:16:17;;;;;;;1.50;1.30;;;;;;;19.36;60.58;96202.34;104032;1277;66059;-39
2023/10/27 02:18:44;;;;;;;1.70;1.60;;;;;;;19.35;60.60;96197.97;104011;1277;72636;-39
2023/10/27 02:21:11;;;;;;;1.70;1.60;;;;;;;19.35;60.57;96203.88;104090;1280;61257;-39
2023/10/27 02:23:37;;;;;;;1.80;1.50;;;;;;;19.35;60.65;96199.30;103892;1277;61443;-38
2023/10/27 02:26:04;;;;;;;1.70;1.50;;;;;;;19.36;60.57;96199.30;104043;1280;74643;-38
2023/10/27 02:28:31;;;;;;;2.00;1.40;;;;;;;19.35;60.57;96205.57;104012;1280;66137;-39
2023/10/27 02:30:58;;;;;;;1.80;1.50;;;;;;;19.35;60.57;96210.38;103955;1277;72526;-40
2023/10/27 02:33:24;;;;;;;1.80;1.60;;;;;;;19.35;60.51;96205.80;103837;1280;61284;-39
2023/10/27 02:35:51;;;;;;;1.50;1.40;;;;;;;19.34;60.45;96202.84;103814;1278;61373;-41
2023/10/27 02:38:18;;;;;;;1.50;1.40;;;;;;;19.35;60.70;96208.20;106381;1276;74535;-39
2023/10/27 02:40:44;;;;;;;1.70;1.50;;;;;;;19.35;60.60;96213.09;105622;1280;65192;-40
2023/10/27 02:43:12;;;;;;;1.40;1.30;;;;;;;19.35;60.61;96215.02;104101;1277;72751;-39
2023/10/27 02:45:41;;;;;;;1.80;1.60;;;;;;;19.35;60.59;96216.98;103999;1276;61367;-44
2023/10/27 02:48:07;;;;;;;1.80;1.40;;;;;;;19.35;60.61;96216.89;104025;1277;61325;-40
2023/10/27 02:50:35;;;;;;;1.50;1.40;;;;;;;19.36;60.59;96215.43;104274;1276;73293;-38
2023/10/27 02:53:02;;;;;;;2.50;1.60;;;;;;;19.36;60.53;96216.67;104001;1280;64837;-39
2023/10/27 02:55:29;;;;;;;1.90;1.40;;;;;;;19.35;60.48;96215.17;104393;1276;72436;-39
2023/10/27 02:57:56;;;;;;;1.40;1.30;;;;;;;19.35;60.48;96216.52;103961;1280;61302;-39
2023/10/27 03:00:23;;;;;;;1.60;1.50;;;;;;;19.35;60.46;96217.45;103961;1280;61367;-39
2023/10/27 03:02:49;;;;;;;1.70;1.60;;;;;;;19.35;60.45;96217.20;103822;1277;74928;-39
2023/10/27 03:05:16;;;;;;;2.80;1.60;;;;;;;19.34;60.40;96210.45;103909;1280;66165;-39
2023/10/27 03:07:43;;;;;;;3.20;1.70;;;;;;;19.34;60.53;96209.28;104060;1280;72810;-38
2023/10/27 03:10:09;;;;;;;1.40;1.30;;;;;;;19.34;60.47;96206.41;103951;1280;61205;-39
2023/10/27 03:12:36;;;;;;;1.70;1.40;;;;;;;19.34;60.43;96197.65;103868;1276;61304;-39
2023/10/27 03:15:03;;;;;;;1.60;1.40;;;;;;;19.33;60.47;96194.40;103933;1279;74500;-39
2023/10/27 03:17:30;;;;;;;1.60;1.50;;;;;;;19.34;60.43;96184.93;104055;1280;65150;-39
2023/10/27 03:19:57;;;;;;;1.50;1.40;;;;;;;19.33;60.36;96178.58;103970;1277;72409;-39
2023/10/27 03:22:24;;;;;;;2.10;1.30;;;;;;;19.33;60.40;96173.45;104013;1276;61199;-39
2023/10/27 03:24:51;;;;;;;2.00;1.60;;;;;;;19.33;60.43;96177.88;103827;1277;61269;-39
2023/10/27 03:27:17;;;;;;;1.60;1.40;;;;;;;19.33;60.39;96179.20;103857;1280;74733;-39
2023/10/27 03:29:45;;;;;;;1.30;1.20;;;;;;;19.32;60.41;96178.73;103901;1280;65731;-40
2023/10/27 03:32:12;;;;;;;1.60;1.40;;;;;;;19.33;60.40;96177.89;103779;1276;72523;-39
2023/10/27 03:34:39;;;;;;;1.40;1.20;;;;;;;19.32;60.35;96173.15;103733;1280;61269;-39
2023/10/27 03:37:06;;;;;;;1.40;1.30;;;;;;;19.33;60.35;96174.54;103770;1276;61261;-39
2023/10/27 03:39:32;;;;;;;1.50;1.40;;;;;;;19.32;60.40;96170.66;103745;1277;74608;-39
2023/10/27 03:41:59;;;;;;;1.40;1.30;;;;;;;19.33;60.35;96168.57;103907;1280;65625;-39
2023/10/27 03:44:25;;;;;;;1.40;1.30;;;;;;;19.32;60.26;96167.71;103884;1276;72466;-39
2023/10/27 03:46:52;;;;;;;1.70;1.60;;;;;;;19.32;60.33;96165.85;103818;1280;61400;-39
2023/10/27 03:49:19;;;;;;;1.30;1.20;;;;;;;19.32;60.24;96168.73;103836;1278;61387;-39
2023/10/27 03:51:46;;;;;;;1.50;1.40;;;;;;;19.31;60.34;96164.39;103824;1280;74662;-39
2023/10/27 03:54:12;;;;;;;4.40;1.50;;;;;;;19.31;60.30;96152.45;103914;1280;66073;-39
2023/10/27 03:56:39;;;;;;;1.30;1.20;;;;;;;19.31;60.35;96152.14;103788;1277;72455;-39
2023/10/27 03:59:05;;;;;;;1.70;1.50;;;;;;;19.31;60.29;96151.21;103885;1280;61281;-39
2023/10/27 04:01:32;;;;;;;2.10;1.60;;;;;;;19.31;60.33;96151.05;104095;1277;61293;-39
2023/10/27 04:03:59;;;;;;;1.40;1.30;;;;;;;19.30;60.35;96150.35;103739;1277;74975;-39
2023/10/27 04:06:26;;;;;;;1.70;1.30;;;;;;;19.31;60.14;96152.38;103767;1280;66205;-39
2023/10/27 04:08:53;;;;;;;1.50;1.40;;;;;;;19.30;60.27;96156.25;103908;1277;72532;-39
2023/10/27 04:11:19;;;;;;;1.50;1.40;;;;;;;19.31;60.28;96153.46;103813;1280;61752;-40
2023/10/27 04:13:46;;;;;;;2.20;1.30;;;;;;;19.30;60.31;96154.92;103849;1277;61406;-40
2023/10/27 04:16:12;;;;;;;1.30;1.20;;;;;;;19.30;60.18;96157.79;104014;1278;74524;-40
2023/10/27 04:18:39;;;;;;;1.40;1.30;;;;;;;19.30;60.27;96158.33;104011;1277;66193;-40
2023/10/27 04:21:06;;;;;;;1.60;1.30;;;;;;;19.30;60.30;96150.81;103730;1277;72715;-39
2023/10/27 04:23:32;;;;;;;1.30;1.20;;;;;;;19.30;60.18;96144.30;103780;1280;61265;-39
2023/10/27 04:25:59;;;;;;;1.80;1.50;;;;;;;19.29;60.21;96136.07;103816;1277;61316;-39
2023/10/27 04:28:26;;;;;;;2.00;1.40;;;;;;;19.30;60.20;96135.30;103756;1276;75470;-39
2023/10/27 04:30:53;;;;;;;1.30;1.20;;;;;;;19.29;60.23;96130.20;103986;1280;66156;-39
2023/10/27 04:33:20;;;;;;;1.60;1.50;;;;;;;19.29;60.14;96132.05;103816;1277;72673;-39
2023/10/27 04:35:48;;;;;;;1.30;1.20;;;;;;;19.29;60.15;96133.59;103887;1280;61273;-39
2023/10/27 04:38:16;;;;;;;1.50;1.40;;;;;;;19.29;60.17;96131.35;104356;1280;61332;-39
2023/10/27 04:40:43;;;;;;;1.20;1.10;;;;;;;19.28;60.13;96126.95;103986;1277;74526;-39
2023/10/27 04:43:10;;;;;;;1.40;1.20;;;;;;;19.29;60.21;96126.86;103747;1280;66230;-39
2023/10/27 04:45:37;;;;;;;2.70;1.30;;;;;;;19.28;60.17;96127.88;105144;1276;72424;-40
2023/10/27 04:48:05;;;;;;;1.10;1.00;;;;;;;19.28;60.14;96127.78;103827;1280;61695;-39
2023/10/27 04:50:35;;;;;;;1.30;1.10;;;;;;;19.29;60.16;96133.84;104067;1277;61406;-39
2023/10/27 04:53:01;;;;;;;1.50;1.30;;;;;;;19.28;60.20;96133.91;107567;1276;74457;-40
2023/10/27 04:55:47;;;;;;;1.30;1.20;;;;;;;19.29;60.11;96138.42;104234;1279;66488;-40
2023/10/27 04:58:14;;;;;;;1.40;1.30;;;;;;;19.29;60.15;96139.66;103772;1277;73076;-38
2023/10/27 05:00:41;;;;;;;1.50;1.30;;;;;;;19.29;60.07;96140.50;103645;1277;61182;-38
2023/10/27 05:03:08;;;;;;;1.60;1.20;;;;;;;19.30;60.03;96139.34;103781;1277;61268;-39
2023/10/27 05:05:34;;;;;;;1.60;1.40;;;;;;;19.30;60.13;96139.02;104107;1276;74378;-39
2023/10/27 05:08:02;;;;;;;1.80;1.50;;;;;;;19.30;60.04;96137.86;106937;1276;66187;-39
2023/10/27 05:10:28;;;;;;;1.50;1.20;;;;;;;19.30;60.06;96132.28;103680;1276;72726;-40
2023/10/27 05:12:55;;;;;;;1.30;1.20;;;;;;;19.31;60.07;96129.27;104587;1277;61294;-41
2023/10/27 05:15:22;;;;;;;1.30;1.20;;;;;;;19.31;59.96;96128.33;104372;1276;61465;-38
2023/10/27 05:17:49;;;;;;;1.60;1.40;;;;;;;19.32;60.06;96128.40;103806;1277;75117;-40
2023/10/27 05:20:16;;;;;;;1.30;1.20;;;;;;;19.34;60.08;96122.42;104582;1277;66294;-38
2023/10/27 05:22:43;;;;;;;3.50;1.50;;;;;;;19.38;60.59;96127.96;106215;1276;71208;-39
2023/10/27 05:25:10;;;;;;;2.00;1.50;;;;;;;19.43;60.97;96131.98;107411;1276;59251;-38
2023/10/27 05:27:37;;;;;;;3.00;1.60;;;;;;;19.49;61.00;96135.67;105648;1280;61150;-38
2023/10/27 05:30:04;;;;;;;1.70;1.60;;;;;;;19.54;60.90;96137.45;103940;1277;74650;-38
2023/10/27 05:32:33;;;;;;;1.60;1.40;;;;;;;19.59;60.51;96143.02;103895;1277;66476;-36
2023/10/27 05:34:59;;;;;;;14.60;2.40;;;;;;;19.62;60.10;96145.34;103867;1277;73197;-37
2023/10/27 05:37:26;;;;;;;3.00;1.90;;;;;;;19.65;59.81;96149.52;103934;1280;61272;-37
2023/10/27 05:39:53;;;;;;;11.10;2.20;;;;;;;19.67;59.61;96155.34;103976;1277;61381;-36
2023/10/27 05:42:20;;;;;;;7.60;1.90;;;;;;;19.67;59.97;96157.83;103794;1278;74635;-38
2023/10/27 05:44:46;;;;;;;9.80;2.30;;;;;;;19.68;60.27;96156.96;103695;1280;66885;-39
2023/10/27 05:47:13;;;;;;;8.80;2.30;;;;;;;19.71;60.50;96161.39;103775;1277;73092;-39
2023/10/27 05:49:40;;;;;;;14.60;1.90;;;;;;;19.72;60.75;96166.98;103697;1280;61326;-38
2023/10/27 05:52:06;;;;;;;6.20;2.30;;;;;;;19.73;61.04;96168.20;103871;1276;61408;-39
2023/10/27 05:54:33;;;;;;;10.50;2.40;;;;;;;19.74;61.17;96181.00;103928;1276;74600;-39
2023/10/27 05:57:00;;;;;;;12.70;3.00;;;;;;;19.74;61.21;96177.27;103701;1283;67392;-37
2023/10/27 05:59:27;;;;;;;18.60;3.80;;;;;;;19.74;61.06;96172.00;103961;1277;72726;-39
2023/10/27 06:01:54;;;;;;;14.80;3.30;;;;;;;19.71;61.00;96170.07;103732;1280;61304;-38
2023/10/27 06:04:39;;;;;;;15.90;4.20;;;;;;;19.68;60.93;96172.95;104002;1280;61330;-39
2023/10/27 06:07:05;;;;;;;15.30;4.10;;;;;;;19.65;60.96;96181.42;103751;1279;74420;-39
2023/10/27 06:09:34;;;;;;;14.30;4.20;;;;;;;19.63;60.97;96181.35;103792;1280;65395;-38
2023/10/27 06:12:01;;;;;;;13.80;3.90;;;;;;;19.61;60.99;96181.65;103837;1277;72469;-38
2023/10/27 06:14:32;;;;;;;10.80;3.80;;;;;;;19.59;61.20;96176.08;106023;1280;61375;-39
2023/10/27 06:16:59;;;;;;;12.10;4.20;;;;;;;19.58;61.30;96178.17;103720;1277;61271;-39
2023/10/27 06:19:25;;;;;;;8.90;3.90;;;;;;;19.56;61.33;96180.20;103702;1278;75147;-39
2023/10/27 06:22:00;;;;;;;10.70;3.40;;;;;;;19.54;61.39;96181.67;103867;1277;66654;-38
2023/10/27 06:24:27;;;;;;;12.00;3.90;;;;;;;19.53;61.41;96180.58;103556;1278;72843;-38
2023/10/27 06:26:54;;;;;;;6.90;3.20;;;;;;;19.53;61.46;96182.37;103726;1280;61261;-39
2023/10/27 06:29:21;;;;;;;9.30;3.30;;;;;;;19.53;61.48;96185.48;103752;1277;61409;-37
2023/10/27 06:31:50;;;;;;;8.30;2.70;;;;;;;19.53;61.61;96184.24;103868;1278;74722;-35
2023/10/27 06:34:17;;;;;;;6.70;2.20;;;;;;;19.55;62.16;96183.98;104167;1277;66347;-38
2023/10/27 06:36:44;;;;;;;7.60;2.70;;;;;;;19.56;62.53;96175.61;104521;1276;72678;-37
2023/10/27 06:39:11;;;;;;;6.70;2.40;;;;;;;19.57;62.75;96177.73;103945;1283;61409;-37
2023/10/27 06:41:38;;;;;;;11.50;2.70;;;;;;;19.59;62.88;96177.48;103890;1278;61253;-41
2023/10/27 06:44:06;;;;;;;8.20;2.50;;;;;;;19.62;63.04;96174.36;103636;1283;76647;-41
2023/10/27 06:46:33;;;;;;;10.00;2.50;;;;;;;19.65;63.00;96173.42;103902;1280;66099;-41
2023/10/27 06:49:00;;;;;;;7.80;2.20;;;;;;;19.68;63.04;96170.23;103801;1277;72745;-38
2023/10/27 06:51:27;;;;;;;7.50;2.10;;;;;;;19.70;63.13;96170.38;103345;1276;61419;-39
2023/10/27 06:53:56;;;;;;;6.70;2.60;;;;;;;19.72;63.14;96171.77;104875;1281;61284;-42
2023/10/27 06:56:23;;;;;;;4.40;2.30;;;;;;;19.74;63.02;96170.61;103701;1279;74535;-40
2023/10/27 06:58:49;;;;;;;5.70;2.30;;;;;;;19.76;63.10;96167.48;103514;1283;66437;-38
2023/10/27 07:01:16;;;;;;;8.10;2.30;;;;;;;19.78;62.97;96163.99;103854;1280;73329;-38
2023/10/27 07:03:44;;;;;;;9.60;2.50;;;;;;;19.80;62.93;96160.41;103697;1280;62015;-38
2023/10/27 07:06:15;;;;;;;4.40;2.00;;;;;;;19.82;63.04;96164.83;103761;1277;61446;-42
2023/10/27 07:08:43;;;;;;;4.00;2.10;;;;;;;19.84;62.86;96159.02;103750;1283;74631;-41
2023/10/27 07:11:11;;;;;;;5.80;2.20;;;;;;;19.86;62.78;96155.90;103928;1280;64383;-40
2023/10/27 07:13:46;;;;;;;8.60;2.20;;;;;;;19.87;62.69;96153.56;103842;1280;72975;-41
2023/10/27 07:16:19;;;;;;;5.40;1.90;;;;;;;19.90;62.66;96161.40;103753;1278;61343;-39
2023/10/27 07:18:47;;;;;;;4.00;2.00;;;;;;;19.91;62.70;96158.05;103720;1278;61389;-41
2023/10/27 07:21:14;;;;;;;5.60;1.70;;;;;;;19.92;62.59;96162.31;103820;1282;73897;-40
2023/10/27 07:23:41;;;;;;;6.70;1.90;;;;;;;19.94;62.63;96159.20;103755;1283;65382;-38
2023/10/27 07:26:14;;;;;;;4.50;1.80;;;;;;;19.96;62.73;96153.38;103809;1277;72713;-36
2023/10/27 07:28:43;;;;;;;5.60;2.10;;;;;;;19.97;62.61;96147.79;103873;1280;61275;-41
2023/10/27 07:31:10;;;;;;;5.30;2.30;;;;;;;19.96;62.42;96151.45;103782;1279;62201;-38
2023/10/27 07:33:46;;;;;;;4.10;2.20;;;;;;;19.96;62.38;96150.20;103591;1283;76001;-35
2023/10/27 07:36:16;;;;;;;7.00;2.10;;;;;;;19.94;62.49;96146.55;103514;1285;66079;-38
2023/10/27 07:38:46;;;;;;;4.20;2.30;;;;;;;19.93;62.42;96144.77;103320;1277;73107;-41
2023/10/27 07:41:13;;;;;;;4.70;2.10;;;;;;;19.92;62.45;96149.29;107038;1276;61109;-40
2023/10/27 07:43:41;;;;;;;9.00;2.40;;;;;;;19.92;62.65;96146.34;106965;1277;60998;-39
2023/10/27 07:46:11;;;;;;;4.50;2.30;;;;;;;19.91;62.54;96148.05;107089;1282;75454;-41
2023/10/27 07:48:40;;;;;;;4.00;1.90;;;;;;;19.91;62.80;96142.84;106650;1278;66910;-38
2023/10/27 07:51:13;;;;;;;7.50;2.20;;;;;;;19.93;62.79;96137.78;103770;1281;73914;-43
2023/10/27 07:53:44;;;;;;;4.10;2.20;;;;;;;19.94;62.77;96138.79;103737;1277;61250;-41
2023/10/27 07:56:13;;;;;;;4.60;1.90;;;;;;;19.96;62.84;96130.94;103597;1277;61384;-41
2023/10/27 07:58:42;;;;;;;4.80;2.20;;;;;;;19.97;62.97;96128.45;103745;1280;74689;-42
2023/10/27 08:01:09;;;;;;;2.70;1.90;;;;;;;19.98;62.93;96121.39;103464;1277;67149;-39
2023/10/27 08:03:36;;;;;;;4.10;2.00;;;;;;;20.00;63.16;96125.79;104155;1280;73017;-36
2023/10/27 08:06:07;;;;;;;4.00;2.20;;;;;;;20.02;63.11;96126.56;104144;1277;61377;-36
2023/10/27 08:08:37;;;;;;;4.90;2.20;;;;;;;20.03;63.11;96120.44;105758;1277;61131;-35
2023/10/27 08:11:05;;;;;;;5.20;2.00;;;;;;;20.05;63.28;96115.61;106503;1277;73824;-36
2023/10/27 08:13:40;;;;;;;6.30;2.10;;;;;;;20.07;63.15;96116.44;105414;1277;65319;-38
2023/10/27 08:16:09;;;;;;;4.60;1.70;;;;;;;20.09;63.20;96112.56;104674;1277;72945;-40
2023/10/27 08:18:36;;;;;;;4.60;2.30;;;;;;;20.11;63.19;96108.36;104239;1277;61262;-35
2023/10/27 08:21:04;;;;;;;3.50;2.00;;;;;;;20.14;62.97;96108.48;103922;1280;61272;-39
2023/10/27 08:23:31;;;;;;;4.90;2.20;;;;;;;20.15;63.01;96110.11;103840;1276;74619;-41
2023/10/27 08:25:58;;;;;;;4.80;1.80;;;;;;;20.17;62.92;96111.42;104032;1282;67171;-39
2023/10/27 08:28:27;;;;;;;4.30;2.00;;;;;;;20.19;63.05;96106.05;103759;1280;72916;-39
2023/10/27 08:30:56;;;;;;;2.60;1.80;;;;;;;20.20;62.88;96105.42;103557;1277;61268;-41
2023/10/27 08:33:24;;;;;;;4.10;2.00;;;;;;;20.20;62.93;96104.73;105200;1275;61235;-40
2023/10/27 08:35:51;;;;;;;3.70;1.70;;;;;;;20.20;62.88;96104.73;106164;1276;76415;-38
2023/10/27 08:38:17;;;;;;;5.20;1.90;;;;;;;20.21;62.97;96103.56;103945;1280;66322;-37
2023/10/27 08:40:44;;;;;;;3.00;2.00;;;;;;;20.23;63.00;96100.54;104119;1277;73673;-38
2023/10/27 08:43:12;;;;;;;5.80;1.80;;;;;;;20.24;62.88;96100.77;104067;1280;61195;-38
2023/10/27 08:45:39;;;;;;;5.60;1.80;;;;;;;20.26;62.95;96105.89;104157;1280;61313;-37
2023/10/27 08:48:07;;;;;;;3.70;1.60;;;;;;;20.26;62.75;96112.02;103819;1277;73159;-41
2023/10/27 08:50:40;;;;;;;3.10;1.80;;;;;;;20.28;62.82;96109.67;104066;1280;186169;-41
2023/10/27 08:53:13;;;;;;;3.80;2.00;;;;;;;20.28;62.64;96107.73;104058;1277;71781;-40
2023/10/27 08:55:42;;;;;;;3.00;1.60;;;;;;;20.29;62.63;96108.89;103840;1277;61278;-41
2023/10/27 08:58:09;;;;;;;6.50;1.90;;;;;;;20.29;62.64;96107.42;103642;1277;61327;-42
2023/10/27 09:00:36;;;;;;;4.20;1.50;;;;;;;20.30;62.71;96110.69;103880;1278;74480;-40
2023/10/27 09:03:16;;;;;;;5.80;1.90;;;;;;;20.30;62.83;96115.11;103886;1283;66219;-39
2023/10/27 09:05:45;;;;;;;2.90;1.80;;;;;;;20.31;63.02;96110.52;103712;1277;71902;-39
2023/10/27 09:08:12;;;;;;;6.70;2.00;;;;;;;20.33;63.31;96109.49;103893;1280;61222;-36
2023/10/27 09:10:39;;;;;;;7.60;1.70;;;;;;;20.34;63.40;96107.94;103970;1279;62083;-39
2023/10/27 09:13:08;;;;;;;4.00;1.90;;;;;;;20.36;63.60;96105.05;104032;1278;75454;-38
2023/10/27 09:15:48;;;;;;;5.80;1.70;;;;;;;20.38;63.81;96108.45;104835;1278;67601;-40
2023/10/27 09:18:15;;;;;;;4.00;2.00;;;;;;;20.40;63.84;96103.09;103784;1281;73558;-39
2023/10/27 09:21:01;;;;;;;4.40;1.70;;;;;;;20.40;63.79;96105.80;103826;1283;61220;-37
2023/10/27 09:23:28;;;;;;;4.30;1.80;;;;;;;20.42;63.82;96106.49;103861;1278;61274;-39
2023/10/27 09:25:56;;;;;;;3.80;1.30;;;;;;;20.43;63.75;96106.16;103597;1286;74658;-42
2023/10/27 09:28:27;;;;;;;5.50;2.00;;;;;;;20.44;63.64;96110.34;103816;1277;65172;-41
2023/10/27 09:30:56;;;;;;;3.20;1.60;;;;;;;20.46;63.48;96110.04;104042;1277;73019;-37
2023/10/27 09:33:26;;;;;;;5.40;2.10;;;;;;;20.47;63.45;96112.73;103899;1277;61394;-43
2023/10/27 09:35:53;;;;;;;5.60;2.00;;;;;;;20.49;63.41;96107.99;103810;1278;61239;-44
2023/10/27 09:38:22;;;;;;;6.30;2.10;;;;;;;20.50;63.57;96105.89;104519;1277;74455;-46
2023/10/27 09:40:49;;;;;;;2.50;1.50;;;;;;;20.52;63.56;96103.00;103863;1283;66073;-41
2023/10/27 09:43:17;;;;;;;2.20;1.60;;;;;;;20.55;63.56;96096.30;103814;1277;73736;-40
2023/10/27 09:45:54;;;;;;;2.80;1.80;;;;;;;20.59;63.50;96096.97;105822;1283;61300;-41
2023/10/27 09:48:26;;;;;;;5.70;2.10;;;;;;;20.63;63.42;96095.77;103755;1277;61303;-41
2023/10/27 09:51:01;;;;;;;2.70;1.70;;;;;;;20.67;63.09;96091.55;103772;1277;74916;-41
2023/10/27 09:53:28;;;;;;;3.10;2.10;;;;;;;20.71;63.00;96082.98;103666;1282;65062;-41
2023/10/27 09:55:57;;;;;;;1.60;1.20;;;;;;;20.74;62.88;96080.69;103799;1280;72681;-39
2023/10/27 09:58:25;;;;;;;3.60;1.50;;;;;;;20.77;62.68;96076.61;103662;1282;61198;-39
2023/10/27 10:00:54;;;;;;;2.70;1.70;;;;;;;20.80;62.59;96073.56;103808;1280;61200;-41
2023/10/27 10:03:24;;;;;;;2.00;1.50;;;;;;;20.82;62.48;96066.31;103966;1280;74420;-42
2023/10/27 10:06:12;;;;;;;3.90;1.70;;;;;;;20.85;62.25;96058.90;103902;1280;66264;-43
2023/10/27 10:08:40;;;;;;;4.30;2.00;;;;;;;20.89;62.01;96055.91;103788;1280;72616;-42
2023/10/27 10:11:17;;;;;;;3.10;2.10;;;;;;;20.94;61.98;96057.36;103941;1283;61372;-44
2023/10/27 10:13:48;;;;;;;4.60;2.10;;;;;;;20.99;62.05;96059.32;103486;1283;61244;-41
2023/10/27 10:16:16;;;;;;;3.90;2.00;;;;;;;21.05;62.12;96059.05;103632;1278;74931;-36
2023/10/27 10:18:47;;;;;;;5.50;2.00;;;;;;;21.09;61.96;96058.77;103586;1283;65612;-35
2023/10/27 10:21:38;;;;;;;3.30;1.90;;;;;;;21.13;61.81;96059.77;103751;1278;72649;-36
2023/10/27 10:24:08;;;;;;;3.40;1.80;;;;;;;21.14;61.82;96058.27;104239;1280;61373;-36
2023/10/27 10:27:13;;;;;;;3.20;1.60;;;;;;;21.14;61.93;96050.57;103623;1283;61374;-36
2023/10/27 10:29:47;;;;;;;2.50;1.60;;;;;;;21.14;61.95;96047.68;103595;1285;76222;-37
2023/10/27 10:32:33;;;;;;;4.80;2.20;;;;;;;21.13;61.73;96044.50;103337;1286;65170;-41
2023/10/27 10:35:19;;;;;;;6.40;1.80;;;;;;;21.13;61.72;96046.22;107449;1277;72501;-41
2023/10/27 10:37:46;;;;;;;4.60;1.90;;;;;;;21.14;61.65;96037.81;105630;1277;61152;-40
2023/10/27 10:40:23;;;;;;;6.10;2.00;;;;;;;21.15;61.70;96033.36;103825;1278;61353;-43
2023/10/27 10:43:20;;;;;;;4.80;2.20;;;;;;;21.17;61.26;96027.36;107243;1276;74773;-42
2023/10/27 10:45:50;;;;;;;7.20;2.20;;;;;;;21.20;61.48;96019.16;107262;1280;64849;-40
2023/10/27 10:48:18;;;;;;;3.90;2.00;;;;;;;21.22;61.59;96016.48;107338;1276;72427;-41
2023/10/27 10:50:48;;;;;;;4.00;1.90;;;;;;;21.25;61.52;96014.59;106386;1280;61291;-40
2023/10/27 10:53:24;;;;;;;7.20;1.80;;;;;;;21.26;61.49;96009.52;105924;1276;61175;-40
2023/10/27 10:55:58;;;;;;;4.50;1.90;;;;;;;21.30;61.66;96005.98;106502;1276;73269;-41
2023/10/27 10:58:29;;;;;;;3.30;1.80;;;;;;;21.33;61.49;96004.23;104685;1280;66352;-40
2023/10/27 11:00:57;;;;;;;3.10;1.70;;;;;;;21.35;61.53;95997.13;103842;1280;71448;-41
2023/10/27 11:03:25;;;;;;;4.70;1.60;;;;;;;21.37;61.35;95995.08;103980;1280;61282;-39
2023/10/27 11:05:54;;;;;;;5.10;1.90;;;;;;;21.38;61.31;95993.35;103874;1277;61346;-38
2023/10/27 11:08:26;;;;;;;3.10;1.80;;;;;;;21.40;61.29;95993.10;103461;1277;74730;-38
2023/10/27 11:11:02;;;;;;;3.40;1.60;;;;;;;21.41;61.23;95990.42;103940;1280;66451;-39
2023/10/27 11:13:31;;;;;;;5.10;1.90;;;;;;;21.44;61.17;95986.66;103993;1280;74127;-39
2023/10/27 11:15:59;;;;;;;2.80;1.80;;;;;;;21.45;61.15;95985.26;103885;1278;61332;-39
2023/10/27 11:18:29;;;;;;;3.40;1.60;;;;;;;21.47;60.96;95983.76;103782;1277;61286;-41
2023/10/27 11:20:56;;;;;;;3.70;1.70;;;;;;;21.48;60.84;95983.65;103945;1277;74706;-39
2023/10/27 11:23:26;;;;;;;6.60;1.70;;;;;;;21.49;60.98;95979.77;103719;1280;65536;-40
2023/10/27 11:26:03;;;;;;;2.60;1.80;;;;;;;21.49;60.76;95975.09;103798;1280;72495;-40
2023/10/27 11:28:30;;;;;;;4.70;1.80;;;;;;;21.50;60.59;95972.98;103834;1279;61381;-40
2023/10/27 11:31:14;;;;;;;3.00;1.60;;;;;;;21.50;60.32;95970.72;103785;1277;61268;-39
2023/10/27 11:34:00;;;;;;;6.20;1.60;;;;;;;21.51;60.46;95964.64;103743;1278;75627;-39
2023/10/27 11:36:36;;;;;;;3.20;1.70;;;;;;;21.51;60.31;95961.45;103894;1280;66271;-41